sensor_id;sensor_type;location;lat;lon;timestamp;temperature;humidity
69546;SHT31;56766;52.260;20.746;2023-01-15T00:01:52;5.14;83.26
69546;SHT31;56766;52.260;20.746;2023-01-15T00:04:19;5.13;83.33
69546;SHT31;56766;52.260;20.746;2023-01-15T00:06:46;5.13;83.30
69546;SHT31;56766;52.260;20.746;2023-01-15T00:09:14;5.12;83.18
69546;SHT31;56766;52.260;20.746;2023-01-15T00:11:41;5.11;83.01
69546;SHT31;56766;52.260;20.746;2023-01-15T00:14:09;5.10;83.01
69546;SHT31;56766;52.260;20.746;2023-01-15T00:16:38;5.09;83.12
69546;SHT31;56766;52.260;20.746;2023-01-15T00:19:10;5.09;83.20
69546;SHT31;56766;52.260;20.746;2023-01-15T00:21:37;5.08;82.98
69546;SHT31;56766;52.260;20.746;2023-01-15T00:24:04;5.06;82.99
69546;SHT31;56766;52.260;20.746;2023-01-15T00:26:50;5.05;82.96
69546;SHT31;56766;52.260;20.746;2023-01-15T00:29:36;5.04;82.54
69546;SHT31;56766;52.260;20.746;2023-01-15T00:32:05;5.07;82.51
69546;SHT31;56766;52.260;20.746;2023-01-15T00:34:34;5.06;82.43
69546;SHT31;56766;52.260;20.746;2023-01-15T00:37:02;5.05;82.19
69546;SHT31;56766;52.260;20.746;2023-01-15T00:39:29;5.04;82.52
69546;SHT31;56766;52.260;20.746;2023-01-15T00:41:55;5.02;82.47
69546;SHT31;56766;52.260;20.746;2023-01-15T00:44:23;4.96;82.45
69546;SHT31;56766;52.260;20.746;2023-01-15T00:46:50;4.94;82.48
69546;SHT31;56766;52.260;20.746;2023-01-15T00:49:18;4.91;82.63
69546;SHT31;56766;52.260;20.746;2023-01-15T00:51:44;4.85;82.74
69546;SHT31;56766;52.260;20.746;2023-01-15T00:54:12;4.84;82.37
69546;SHT31;56766;52.260;20.746;2023-01-15T00:56:38;4.84;82.36
69546;SHT31;56766;52.260;20.746;2023-01-15T00:59:05;4.84;82.46
69546;SHT31;56766;52.260;20.746;2023-01-15T01:01:32;4.83;82.52
69546;SHT31;56766;52.260;20.746;2023-01-15T01:04:00;4.81;82.46
69546;SHT31;56766;52.260;20.746;2023-01-15T01:06:28;4.79;82.40
69546;SHT31;56766;52.260;20.746;2023-01-15T01:08:55;4.77;82.40
69546;SHT31;56766;52.260;20.746;2023-01-15T01:11:24;4.79;82.02
69546;SHT31;56766;52.260;20.746;2023-01-15T01:13:53;4.85;81.49
69546;SHT31;56766;52.260;20.746;2023-01-15T01:16:22;4.88;81.38
69546;SHT31;56766;52.260;20.746;2023-01-15T01:18:53;4.88;81.52
69546;SHT31;56766;52.260;20.746;2023-01-15T01:21:20;4.85;81.49
69546;SHT31;56766;52.260;20.746;2023-01-15T01:23:48;4.86;81.59
69546;SHT31;56766;52.260;20.746;2023-01-15T01:26:15;4.85;81.66
69546;SHT31;56766;52.260;20.746;2023-01-15T01:28:47;4.88;81.46
69546;SHT31;56766;52.260;20.746;2023-01-15T01:31:19;4.91;81.37
69546;SHT31;56766;52.260;20.746;2023-01-15T01:33:48;4.93;81.07
69546;SHT31;56766;52.260;20.746;2023-01-15T01:36:17;4.93;81.20
69546;SHT31;56766;52.260;20.746;2023-01-15T01:38:48;4.92;81.39
69546;SHT31;56766;52.260;20.746;2023-01-15T01:41:16;4.88;81.37
69546;SHT31;56766;52.260;20.746;2023-01-15T01:43:57;4.84;81.36
69546;SHT31;56766;52.260;20.746;2023-01-15T01:46:26;4.79;81.30
69546;SHT31;56766;52.260;20.746;2023-01-15T01:49:00;4.75;81.28
69546;SHT31;56766;52.260;20.746;2023-01-15T01:51:49;4.71;81.38
69546;SHT31;56766;52.260;20.746;2023-01-15T01:54:24;4.66;81.34
69546;SHT31;56766;52.260;20.746;2023-01-15T01:56:52;4.61;81.39
69546;SHT31;56766;52.260;20.746;2023-01-15T01:59:22;4.57;81.50
69546;SHT31;56766;52.260;20.746;2023-01-15T02:01:51;4.51;81.66
69546;SHT31;56766;52.260;20.746;2023-01-15T02:04:21;4.46;81.69
69546;SHT31;56766;52.260;20.746;2023-01-15T02:06:52;4.43;81.74
69546;SHT31;56766;52.260;20.746;2023-01-15T02:09:20;4.42;81.86
69546;SHT31;56766;52.260;20.746;2023-01-15T02:11:50;4.43;82.01
69546;SHT31;56766;52.260;20.746;2023-01-15T02:14:32;4.46;82.11
69546;SHT31;56766;52.260;20.746;2023-01-15T02:17:19;4.49;82.15
69546;SHT31;56766;52.260;20.746;2023-01-15T02:22:58;4.54;82.20
69546;SHT31;56766;52.260;20.746;2023-01-15T02:25:44;4.57;82.17
69546;SHT31;56766;52.260;20.746;2023-01-15T02:28:35;4.58;82.08
69546;SHT31;56766;52.260;20.746;2023-01-15T02:31:16;4.62;81.88
69546;SHT31;56766;52.260;20.746;2023-01-15T02:34:13;4.66;82.01
69546;SHT31;56766;52.260;20.746;2023-01-15T02:36:55;4.66;81.99
69546;SHT31;56766;52.260;20.746;2023-01-15T02:39:28;4.65;82.04
69546;SHT31;56766;52.260;20.746;2023-01-15T02:42:01;4.65;82.00
69546;SHT31;56766;52.260;20.746;2023-01-15T02:44:35;4.65;82.03
69546;SHT31;56766;52.260;20.746;2023-01-15T02:47:09;4.65;81.94
69546;SHT31;56766;52.260;20.746;2023-01-15T02:49:40;4.67;81.71
69546;SHT31;56766;52.260;20.746;2023-01-15T02:52:17;4.69;81.57
69546;SHT31;56766;52.260;20.746;2023-01-15T02:54:59;4.68;81.36
69546;SHT31;56766;52.260;20.746;2023-01-15T02:57:38;4.65;81.35
69546;SHT31;56766;52.260;20.746;2023-01-15T03:00:13;4.65;81.44
69546;SHT31;56766;52.260;20.746;2023-01-15T03:03:08;4.64;81.30
69546;SHT31;56766;52.260;20.746;2023-01-15T03:05:58;4.61;81.32
69546;SHT31;56766;52.260;20.746;2023-01-15T03:08:30;4.58;81.39
69546;SHT31;56766;52.260;20.746;2023-01-15T03:11:16;4.57;81.34
69546;SHT31;56766;52.260;20.746;2023-01-15T03:17:04;4.56;80.91
69546;SHT31;56766;52.260;20.746;2023-01-15T03:20:01;4.59;81.09
69546;SHT31;56766;52.260;20.746;2023-01-15T03:23:05;4.60;81.08
69546;SHT31;56766;52.260;20.746;2023-01-15T03:25:42;4.60;81.04
69546;SHT31;56766;52.260;20.746;2023-01-15T03:28:21;4.60;81.09
69546;SHT31;56766;52.260;20.746;2023-01-15T03:30:52;4.59;81.02
69546;SHT31;56766;52.260;20.746;2023-01-15T03:33:19;4.61;81.03
69546;SHT31;56766;52.260;20.746;2023-01-15T03:35:53;4.60;80.98
69546;SHT31;56766;52.260;20.746;2023-01-15T03:38:33;4.59;80.93
69546;SHT31;56766;52.260;20.746;2023-01-15T03:44:45;4.55;80.93
69546;SHT31;56766;52.260;20.746;2023-01-15T03:47:40;4.53;80.86
69546;SHT31;56766;52.260;20.746;2023-01-15T03:50:41;4.53;80.99
69546;SHT31;56766;52.260;20.746;2023-01-15T03:56:23;4.53;81.05
69546;SHT31;56766;52.260;20.746;2023-01-15T03:59:09;4.55;80.89
69546;SHT31;56766;52.260;20.746;2023-01-15T04:01:43;4.53;81.03
69546;SHT31;56766;52.260;20.746;2023-01-15T04:04:14;4.53;81.02
69546;SHT31;56766;52.260;20.746;2023-01-15T04:06:42;4.54;81.06
69546;SHT31;56766;52.260;20.746;2023-01-15T04:09:13;4.55;81.03
69546;SHT31;56766;52.260;20.746;2023-01-15T04:11:40;4.57;81.05
69546;SHT31;56766;52.260;20.746;2023-01-15T04:14:12;4.56;81.03
69546;SHT31;56766;52.260;20.746;2023-01-15T04:16:40;4.55;80.98
69546;SHT31;56766;52.260;20.746;2023-01-15T04:19:07;4.54;81.08
69546;SHT31;56766;52.260;20.746;2023-01-15T04:21:33;4.52;81.19
69546;SHT31;56766;52.260;20.746;2023-01-15T04:24:00;4.52;81.23
69546;SHT31;56766;52.260;20.746;2023-01-15T04:26:27;4.51;81.12
69546;SHT31;56766;52.260;20.746;2023-01-15T04:28:53;4.48;81.14
69546;SHT31;56766;52.260;20.746;2023-01-15T04:31:20;4.43;81.28
69546;SHT31;56766;52.260;20.746;2023-01-15T04:33:47;4.41;81.26
69546;SHT31;56766;52.260;20.746;2023-01-15T04:36:14;4.40;81.24
69546;SHT31;56766;52.260;20.746;2023-01-15T04:38:40;4.37;81.33
69546;SHT31;56766;52.260;20.746;2023-01-15T04:41:08;4.36;81.25
69546;SHT31;56766;52.260;20.746;2023-01-15T04:43:55;4.36;81.21
69546;SHT31;56766;52.260;20.746;2023-01-15T04:46:37;4.33;81.31
69546;SHT31;56766;52.260;20.746;2023-01-15T04:49:14;4.31;81.37
69546;SHT31;56766;52.260;20.746;2023-01-15T04:51:44;4.32;81.45
69546;SHT31;56766;52.260;20.746;2023-01-15T04:54:13;4.31;81.54
69546;SHT31;56766;52.260;20.746;2023-01-15T04:56:45;4.31;81.55
69546;SHT31;56766;52.260;20.746;2023-01-15T04:59:15;4.32;81.55
69546;SHT31;56766;52.260;20.746;2023-01-15T05:01:43;4.33;81.51
69546;SHT31;56766;52.260;20.746;2023-01-15T05:04:10;4.37;81.56
69546;SHT31;56766;52.260;20.746;2023-01-15T05:06:37;4.42;81.50
69546;SHT31;56766;52.260;20.746;2023-01-15T05:09:05;4.46;81.52
69546;SHT31;56766;52.260;20.746;2023-01-15T05:11:37;4.50;81.49
69546;SHT31;56766;52.260;20.746;2023-01-15T05:14:06;4.54;81.44
69546;SHT31;56766;52.260;20.746;2023-01-15T05:16:33;4.56;81.40
69546;SHT31;56766;52.260;20.746;2023-01-15T05:19:02;4.60;81.39
69546;SHT31;56766;52.260;20.746;2023-01-15T05:21:36;4.64;81.28
69546;SHT31;56766;52.260;20.746;2023-01-15T05:24:09;4.69;81.27
69546;SHT31;56766;52.260;20.746;2023-01-15T05:26:41;4.71;81.21
69546;SHT31;56766;52.260;20.746;2023-01-15T05:29:10;4.74;81.00
69546;SHT31;56766;52.260;20.746;2023-01-15T05:31:38;4.78;80.94
69546;SHT31;56766;52.260;20.746;2023-01-15T05:34:05;4.82;80.93
69546;SHT31;56766;52.260;20.746;2023-01-15T05:36:32;4.87;80.75
69546;SHT31;56766;52.260;20.746;2023-01-15T05:39:00;4.91;80.54
69546;SHT31;56766;52.260;20.746;2023-01-15T05:41:29;4.93;80.56
69546;SHT31;56766;52.260;20.746;2023-01-15T05:44:23;4.94;80.49
69546;SHT31;56766;52.260;20.746;2023-01-15T05:46:54;4.96;80.51
69546;SHT31;56766;52.260;20.746;2023-01-15T05:49:26;4.98;80.59
69546;SHT31;56766;52.260;20.746;2023-01-15T05:51:55;5.02;80.46
69546;SHT31;56766;52.260;20.746;2023-01-15T05:54:27;5.05;80.53
69546;SHT31;56766;52.260;20.746;2023-01-15T05:56:57;5.06;80.52
69546;SHT31;56766;52.260;20.746;2023-01-15T05:59:26;5.06;80.60
69546;SHT31;56766;52.260;20.746;2023-01-15T06:01:55;5.06;80.81
69546;SHT31;56766;52.260;20.746;2023-01-15T06:04:23;5.06;81.00
69546;SHT31;56766;52.260;20.746;2023-01-15T06:06:53;5.07;81.03
69546;SHT31;56766;52.260;20.746;2023-01-15T06:09:21;5.08;81.15
69546;SHT31;56766;52.260;20.746;2023-01-15T06:11:50;5.09;81.30
69546;SHT31;56766;52.260;20.746;2023-01-15T06:14:17;5.08;81.48
69546;SHT31;56766;52.260;20.746;2023-01-15T06:16:44;5.09;81.59
69546;SHT31;56766;52.260;20.746;2023-01-15T06:19:12;5.08;81.83
69546;SHT31;56766;52.260;20.746;2023-01-15T06:21:40;5.06;82.04
69546;SHT31;56766;52.260;20.746;2023-01-15T06:24:08;5.05;82.20
69546;SHT31;56766;52.260;20.746;2023-01-15T06:26:36;5.06;82.20
69546;SHT31;56766;52.260;20.746;2023-01-15T06:29:04;5.06;82.30
69546;SHT31;56766;52.260;20.746;2023-01-15T06:31:31;5.07;82.36
69546;SHT31;56766;52.260;20.746;2023-01-15T06:33:59;5.06;82.50
69546;SHT31;56766;52.260;20.746;2023-01-15T06:36:26;5.06;82.55
69546;SHT31;56766;52.260;20.746;2023-01-15T06:38:53;5.08;82.69
69546;SHT31;56766;52.260;20.746;2023-01-15T06:41:23;5.09;82.82
69546;SHT31;56766;52.260;20.746;2023-01-15T06:44:16;5.11;82.92
69546;SHT31;56766;52.260;20.746;2023-01-15T06:47:13;5.12;83.06
69546;SHT31;56766;52.260;20.746;2023-01-15T06:49:50;5.13;83.31
69546;SHT31;56766;52.260;20.746;2023-01-15T06:52:19;5.13;83.45
69546;SHT31;56766;52.260;20.746;2023-01-15T06:54:47;5.13;83.62
69546;SHT31;56766;52.260;20.746;2023-01-15T06:57:13;5.15;83.70
69546;SHT31;56766;52.260;20.746;2023-01-15T06:59:40;5.16;83.73
69546;SHT31;56766;52.260;20.746;2023-01-15T07:02:09;5.18;83.72
69546;SHT31;56766;52.260;20.746;2023-01-15T07:04:37;5.18;83.94
69546;SHT31;56766;52.260;20.746;2023-01-15T07:07:04;5.20;84.09
69546;SHT31;56766;52.260;20.746;2023-01-15T07:09:31;5.24;84.09
69546;SHT31;56766;52.260;20.746;2023-01-15T07:11:57;5.28;84.04
69546;SHT31;56766;52.260;20.746;2023-01-15T07:14:26;5.30;84.00
69546;SHT31;56766;52.260;20.746;2023-01-15T07:16:54;5.33;84.04
69546;SHT31;56766;52.260;20.746;2023-01-15T07:19:21;5.34;84.08
69546;SHT31;56766;52.260;20.746;2023-01-15T07:21:48;5.37;84.03
69546;SHT31;56766;52.260;20.746;2023-01-15T07:24:16;5.39;83.99
69546;SHT31;56766;52.260;20.746;2023-01-15T07:26:44;5.42;84.01
69546;SHT31;56766;52.260;20.746;2023-01-15T07:29:11;5.47;84.04
69546;SHT31;56766;52.260;20.746;2023-01-15T07:31:39;5.49;84.00
69546;SHT31;56766;52.260;20.746;2023-01-15T07:34:06;5.51;83.91
69546;SHT31;56766;52.260;20.746;2023-01-15T07:36:34;5.52;83.89
69546;SHT31;56766;52.260;20.746;2023-01-15T07:39:03;5.54;83.90
69546;SHT31;56766;52.260;20.746;2023-01-15T07:41:30;5.55;83.92
69546;SHT31;56766;52.260;20.746;2023-01-15T07:44:16;5.57;83.88
69546;SHT31;56766;52.260;20.746;2023-01-15T07:47:03;5.58;83.88
69546;SHT31;56766;52.260;20.746;2023-01-15T07:50:12;5.59;83.99
69546;SHT31;56766;52.260;20.746;2023-01-15T07:52:41;5.60;84.13
69546;SHT31;56766;52.260;20.746;2023-01-15T07:55:10;5.61;84.23
69546;SHT31;56766;52.260;20.746;2023-01-15T07:57:40;5.62;84.33
69546;SHT31;56766;52.260;20.746;2023-01-15T08:00:15;5.65;84.40
69546;SHT31;56766;52.260;20.746;2023-01-15T08:02:49;5.68;84.55
69546;SHT31;56766;52.260;20.746;2023-01-15T08:05:17;5.71;84.63
69546;SHT31;56766;52.260;20.746;2023-01-15T08:07:45;5.72;84.73
69546;SHT31;56766;52.260;20.746;2023-01-15T08:10:12;5.74;84.96
69546;SHT31;56766;52.260;20.746;2023-01-15T08:12:40;5.78;85.02
69546;SHT31;56766;52.260;20.746;2023-01-15T08:15:32;5.80;85.14
69546;SHT31;56766;52.260;20.746;2023-01-15T08:18:03;5.83;85.25
69546;SHT31;56766;52.260;20.746;2023-01-15T08:20:33;5.85;85.41
69546;SHT31;56766;52.260;20.746;2023-01-15T08:23:01;5.87;85.57
69546;SHT31;56766;52.260;20.746;2023-01-15T08:25:28;5.90;85.70
69546;SHT31;56766;52.260;20.746;2023-01-15T08:27:59;5.95;85.78
69546;SHT31;56766;52.260;20.746;2023-01-15T08:30:28;6.01;85.88
69546;SHT31;56766;52.260;20.746;2023-01-15T08:33:00;6.05;85.90
69546;SHT31;56766;52.260;20.746;2023-01-15T08:35:28;6.10;85.85
69546;SHT31;56766;52.260;20.746;2023-01-15T08:37:55;6.16;85.80
69546;SHT31;56766;52.260;20.746;2023-01-15T08:40:22;6.20;85.69
69546;SHT31;56766;52.260;20.746;2023-01-15T08:42:49;6.25;85.66
69546;SHT31;56766;52.260;20.746;2023-01-15T08:45:16;6.29;85.52
69546;SHT31;56766;52.260;20.746;2023-01-15T08:47:43;6.34;85.45
69546;SHT31;56766;52.260;20.746;2023-01-15T08:50:10;6.36;85.43
69546;SHT31;56766;52.260;20.746;2023-01-15T08:52:37;6.40;85.42
69546;SHT31;56766;52.260;20.746;2023-01-15T08:55:10;6.43;85.40
69546;SHT31;56766;52.260;20.746;2023-01-15T08:57:37;6.45;85.38
69546;SHT31;56766;52.260;20.746;2023-01-15T09:00:05;6.48;85.37
69546;SHT31;56766;52.260;20.746;2023-01-15T09:02:32;6.51;85.26
69546;SHT31;56766;52.260;20.746;2023-01-15T09:04:59;6.52;85.11
69546;SHT31;56766;52.260;20.746;2023-01-15T09:07:25;6.55;85.08
69546;SHT31;56766;52.260;20.746;2023-01-15T09:09:53;6.59;84.93
69546;SHT31;56766;52.260;20.746;2023-01-15T09:12:19;6.61;84.70
69546;SHT31;56766;52.260;20.746;2023-01-15T09:14:50;6.63;84.55
69546;SHT31;56766;52.260;20.746;2023-01-15T09:17:17;6.64;84.59
69546;SHT31;56766;52.260;20.746;2023-01-15T09:19:44;6.63;84.77
69546;SHT31;56766;52.260;20.746;2023-01-15T09:22:11;6.64;84.69
69546;SHT31;56766;52.260;20.746;2023-01-15T09:24:38;6.63;84.75
69546;SHT31;56766;52.260;20.746;2023-01-15T09:27:05;6.63;84.81
69546;SHT31;56766;52.260;20.746;2023-01-15T09:29:31;6.62;84.81
69546;SHT31;56766;52.260;20.746;2023-01-15T09:31:58;6.61;84.77
69546;SHT31;56766;52.260;20.746;2023-01-15T09:34:24;6.59;84.89
69546;SHT31;56766;52.260;20.746;2023-01-15T09:36:51;6.57;84.83
69546;SHT31;56766;52.260;20.746;2023-01-15T09:39:18;6.56;85.02
69546;SHT31;56766;52.260;20.746;2023-01-15T09:42:04;6.54;85.19
69546;SHT31;56766;52.260;20.746;2023-01-15T09:45:13;6.52;85.19
69546;SHT31;56766;52.260;20.746;2023-01-15T09:51:34;6.48;85.49
69546;SHT31;56766;52.260;20.746;2023-01-15T09:57:01;6.49;85.63
69546;SHT31;56766;52.260;20.746;2023-01-15T09:59:39;6.50;85.69
69546;SHT31;56766;52.260;20.746;2023-01-15T10:02:24;6.52;85.56
69546;SHT31;56766;52.260;20.746;2023-01-15T10:05:21;6.53;85.54
69546;SHT31;56766;52.260;20.746;2023-01-15T10:10:47;6.57;85.48
69546;SHT31;56766;52.260;20.746;2023-01-15T10:16:30;6.60;85.44
69546;SHT31;56766;52.260;20.746;2023-01-15T10:19:04;6.62;85.59
69546;SHT31;56766;52.260;20.746;2023-01-15T10:22:46;6.63;85.63
69546;SHT31;56766;52.260;20.746;2023-01-15T10:25:13;6.64;85.67
69546;SHT31;56766;52.260;20.746;2023-01-15T10:27:46;6.66;85.69
69546;SHT31;56766;52.260;20.746;2023-01-15T10:30:40;6.67;85.68
69546;SHT31;56766;52.260;20.746;2023-01-15T10:36:51;6.67;85.50
69546;SHT31;56766;52.260;20.746;2023-01-15T10:40:17;6.65;85.39
69546;SHT31;56766;52.260;20.746;2023-01-15T10:46:10;6.65;85.39
69546;SHT31;56766;52.260;20.746;2023-01-15T10:48:58;6.63;85.11
69546;SHT31;56766;52.260;20.746;2023-01-15T10:51:36;6.59;85.07
69546;SHT31;56766;52.260;20.746;2023-01-15T10:54:45;6.57;85.09
69546;SHT31;56766;52.260;20.746;2023-01-15T10:57:51;6.55;85.13
69546;SHT31;56766;52.260;20.746;2023-01-15T11:00:19;6.54;85.29
69546;SHT31;56766;52.260;20.746;2023-01-15T11:03:01;6.53;85.50
69546;SHT31;56766;52.260;20.746;2023-01-15T11:05:41;6.51;85.60
69546;SHT31;56766;52.260;20.746;2023-01-15T11:08:31;6.49;85.82
69546;SHT31;56766;52.260;20.746;2023-01-15T11:11:16;6.50;85.82
69546;SHT31;56766;52.260;20.746;2023-01-15T11:14:15;6.50;85.82
69546;SHT31;56766;52.260;20.746;2023-01-15T11:17:01;6.48;85.88
69546;SHT31;56766;52.260;20.746;2023-01-15T11:19:37;6.47;85.96
69546;SHT31;56766;52.260;20.746;2023-01-15T11:22:18;6.45;85.84
69546;SHT31;56766;52.260;20.746;2023-01-15T11:24:56;6.44;85.77
69546;SHT31;56766;52.260;20.746;2023-01-15T11:27:32;6.44;85.84
69546;SHT31;56766;52.260;20.746;2023-01-15T11:30:03;6.45;85.99
69546;SHT31;56766;52.260;20.746;2023-01-15T11:32:34;6.44;85.99
69546;SHT31;56766;52.260;20.746;2023-01-15T11:35:15;6.44;86.07
69546;SHT31;56766;52.260;20.746;2023-01-15T11:37:44;6.44;85.96
69546;SHT31;56766;52.260;20.746;2023-01-15T11:40:19;6.45;86.12
69546;SHT31;56766;52.260;20.746;2023-01-15T11:42:51;6.45;86.23
69546;SHT31;56766;52.260;20.746;2023-01-15T11:48:42;6.49;86.28
69546;SHT31;56766;52.260;20.746;2023-01-15T11:51:33;6.50;86.24
69546;SHT31;56766;52.260;20.746;2023-01-15T11:54:11;6.49;86.04
69546;SHT31;56766;52.260;20.746;2023-01-15T11:56:42;6.50;85.96
69546;SHT31;56766;52.260;20.746;2023-01-15T11:59:16;6.51;85.95
69546;SHT31;56766;52.260;20.746;2023-01-15T12:01:52;6.51;85.77
69546;SHT31;56766;52.260;20.746;2023-01-15T12:04:45;6.53;85.70
69546;SHT31;56766;52.260;20.746;2023-01-15T12:07:18;6.52;85.65
69546;SHT31;56766;52.260;20.746;2023-01-15T12:10:17;6.52;85.61
69546;SHT31;56766;52.260;20.746;2023-01-15T12:13:36;6.52;85.62
69546;SHT31;56766;52.260;20.746;2023-01-15T12:30:08;6.65;85.43
69546;SHT31;56766;52.260;20.746;2023-01-15T12:32:57;6.66;85.23
69546;SHT31;56766;52.260;20.746;2023-01-15T12:35:37;6.66;85.21
69546;SHT31;56766;52.260;20.746;2023-01-15T12:41:11;6.67;85.41
69546;SHT31;56766;52.260;20.746;2023-01-15T12:43:47;6.67;85.26
69546;SHT31;56766;52.260;20.746;2023-01-15T12:46:42;6.69;85.31
69546;SHT31;56766;52.260;20.746;2023-01-15T12:49:29;6.70;85.33
69546;SHT31;56766;52.260;20.746;2023-01-15T12:54:51;6.70;85.05
69546;SHT31;56766;52.260;20.746;2023-01-15T12:57:33;6.71;84.88
69546;SHT31;56766;52.260;20.746;2023-01-15T13:03:20;6.73;84.71
69546;SHT31;56766;52.260;20.746;2023-01-15T13:05:57;6.75;84.89
69546;SHT31;56766;52.260;20.746;2023-01-15T13:08:54;6.76;85.01
69546;SHT31;56766;52.260;20.746;2023-01-15T13:11:21;6.79;84.86
69546;SHT31;56766;52.260;20.746;2023-01-15T13:13:49;6.78;84.50
69546;SHT31;56766;52.260;20.746;2023-01-15T13:16:42;6.79;84.63
69546;SHT31;56766;52.260;20.746;2023-01-15T13:19:50;6.80;84.78
69546;SHT31;56766;52.260;20.746;2023-01-15T13:22:25;6.80;84.44
69546;SHT31;56766;52.260;20.746;2023-01-15T13:25:11;6.81;84.53
69546;SHT31;56766;52.260;20.746;2023-01-15T13:37:42;6.80;84.48
69546;SHT31;56766;52.260;20.746;2023-01-15T13:40:28;6.81;84.67
69546;SHT31;56766;52.260;20.746;2023-01-15T13:43:38;6.81;84.67
69546;SHT31;56766;52.260;20.746;2023-01-15T13:46:18;6.81;84.55
69546;SHT31;56766;52.260;20.746;2023-01-15T13:48:49;6.80;84.34
69546;SHT31;56766;52.260;20.746;2023-01-15T13:51:31;6.79;84.22
69546;SHT31;56766;52.260;20.746;2023-01-15T13:54:16;6.78;84.25
69546;SHT31;56766;52.260;20.746;2023-01-15T13:56:46;6.79;84.23
69546;SHT31;56766;52.260;20.746;2023-01-15T13:59:46;6.79;84.23
69546;SHT31;56766;52.260;20.746;2023-01-15T14:02:27;6.79;84.32
69546;SHT31;56766;52.260;20.746;2023-01-15T14:04:57;6.78;84.64
69546;SHT31;56766;52.260;20.746;2023-01-15T14:07:34;6.78;84.57
69546;SHT31;56766;52.260;20.746;2023-01-15T14:13:45;6.78;84.45
69546;SHT31;56766;52.260;20.746;2023-01-15T14:25:01;6.76;84.67
69546;SHT31;56766;52.260;20.746;2023-01-15T14:28:06;6.76;84.69
69546;SHT31;56766;52.260;20.746;2023-01-15T14:31:10;6.76;84.41
69546;SHT31;56766;52.260;20.746;2023-01-15T14:36:29;6.73;84.82
69546;SHT31;56766;52.260;20.746;2023-01-15T14:39:19;6.73;84.99
69546;SHT31;56766;52.260;20.746;2023-01-15T14:42:14;6.73;84.87
69546;SHT31;56766;52.260;20.746;2023-01-15T14:47:54;6.73;84.70
69546;SHT31;56766;52.260;20.746;2023-01-15T14:50:38;6.72;84.51
69546;SHT31;56766;52.260;20.746;2023-01-15T14:58:53;6.74;84.63
69546;SHT31;56766;52.260;20.746;2023-01-15T15:04:39;6.75;84.74
69546;SHT31;56766;52.260;20.746;2023-01-15T15:07:17;6.74;84.90
69546;SHT31;56766;52.260;20.746;2023-01-15T15:09:58;6.75;84.87
69546;SHT31;56766;52.260;20.746;2023-01-15T15:12:48;6.77;85.02
69546;SHT31;56766;52.260;20.746;2023-01-15T15:15:34;6.78;85.08
69546;SHT31;56766;52.260;20.746;2023-01-15T15:26:27;6.76;84.69
69546;SHT31;56766;52.260;20.746;2023-01-15T15:29:03;6.76;84.67
69546;SHT31;56766;52.260;20.746;2023-01-15T15:31:43;6.77;84.62
69546;SHT31;56766;52.260;20.746;2023-01-15T15:34:17;6.77;84.67
69546;SHT31;56766;52.260;20.746;2023-01-15T15:36:51;6.78;84.85
69546;SHT31;56766;52.260;20.746;2023-01-15T15:39:24;6.78;84.45
69546;SHT31;56766;52.260;20.746;2023-01-15T15:42:40;6.79;84.45
69546;SHT31;56766;52.260;20.746;2023-01-15T15:45:55;6.78;84.42
69546;SHT31;56766;52.260;20.746;2023-01-15T15:48:44;6.77;84.50
69546;SHT31;56766;52.260;20.746;2023-01-15T15:51:31;6.78;84.57
69546;SHT31;56766;52.260;20.746;2023-01-15T15:56:39;6.78;84.71
69546;SHT31;56766;52.260;20.746;2023-01-15T15:59:35;6.78;84.82
69546;SHT31;56766;52.260;20.746;2023-01-15T16:02:29;6.77;84.87
69546;SHT31;56766;52.260;20.746;2023-01-15T16:07:47;6.78;84.90
69546;SHT31;56766;52.260;20.746;2023-01-15T16:10:24;6.79;85.02
69546;SHT31;56766;52.260;20.746;2023-01-15T16:12:56;6.79;85.10
69546;SHT31;56766;52.260;20.746;2023-01-15T16:15:35;6.78;85.16
69546;SHT31;56766;52.260;20.746;2023-01-15T16:18:24;6.78;85.29
69546;SHT31;56766;52.260;20.746;2023-01-15T16:20:55;6.79;85.46
69546;SHT31;56766;52.260;20.746;2023-01-15T16:23:26;6.80;85.66
69546;SHT31;56766;52.260;20.746;2023-01-15T16:26:02;6.79;85.77
69546;SHT31;56766;52.260;20.746;2023-01-15T16:28:36;6.78;85.85
69546;SHT31;56766;52.260;20.746;2023-01-15T16:31:10;6.78;85.89
69546;SHT31;56766;52.260;20.746;2023-01-15T16:33:40;6.78;85.94
69546;SHT31;56766;52.260;20.746;2023-01-15T16:36:07;6.80;86.14
69546;SHT31;56766;52.260;20.746;2023-01-15T16:38:39;6.80;86.28
69546;SHT31;56766;52.260;20.746;2023-01-15T16:41:25;6.78;86.43
69546;SHT31;56766;52.260;20.746;2023-01-15T16:44:00;6.76;86.63
69546;SHT31;56766;52.260;20.746;2023-01-15T16:46:34;6.73;86.77
69546;SHT31;56766;52.260;20.746;2023-01-15T16:49:18;6.74;86.94
69546;SHT31;56766;52.260;20.746;2023-01-15T16:51:53;6.72;87.10
69546;SHT31;56766;52.260;20.746;2023-01-15T16:57:00;6.70;87.35
69546;SHT31;56766;52.260;20.746;2023-01-15T17:02:13;6.69;87.58
69546;SHT31;56766;52.260;20.746;2023-01-15T17:04:46;6.69;87.62
69546;SHT31;56766;52.260;20.746;2023-01-15T17:07:34;6.68;87.72
69546;SHT31;56766;52.260;20.746;2023-01-15T17:10:20;6.68;87.80
69546;SHT31;56766;52.260;20.746;2023-01-15T17:12:53;6.66;87.88
69546;SHT31;56766;52.260;20.746;2023-01-15T17:17:54;6.64;88.04
69546;SHT31;56766;52.260;20.746;2023-01-15T17:20:23;6.63;88.11
69546;SHT31;56766;52.260;20.746;2023-01-15T17:22:54;6.64;88.20
69546;SHT31;56766;52.260;20.746;2023-01-15T17:27:53;6.62;88.37
69546;SHT31;56766;52.260;20.746;2023-01-15T17:30:25;6.62;88.40
69546;SHT31;56766;52.260;20.746;2023-01-15T17:33:02;6.61;88.49
69546;SHT31;56766;52.260;20.746;2023-01-15T17:35:35;6.63;88.60
69546;SHT31;56766;52.260;20.746;2023-01-15T17:38:04;6.63;88.62
69546;SHT31;56766;52.260;20.746;2023-01-15T17:40:33;6.62;88.64
69546;SHT31;56766;52.260;20.746;2023-01-15T17:43:00;6.60;88.72
69546;SHT31;56766;52.260;20.746;2023-01-15T17:45:30;6.59;88.78
69546;SHT31;56766;52.260;20.746;2023-01-15T17:47:59;6.58;88.88
69546;SHT31;56766;52.260;20.746;2023-01-15T17:50:30;6.58;88.93
69546;SHT31;56766;52.260;20.746;2023-01-15T17:52:56;6.58;89.00
69546;SHT31;56766;52.260;20.746;2023-01-15T17:55:23;6.59;89.02
69546;SHT31;56766;52.260;20.746;2023-01-15T17:58:13;6.61;89.08
69546;SHT31;56766;52.260;20.746;2023-01-15T18:01:26;6.61;89.10
69546;SHT31;56766;52.260;20.746;2023-01-15T18:04:19;6.64;89.19
69546;SHT31;56766;52.260;20.746;2023-01-15T18:07:10;6.66;89.22
69546;SHT31;56766;52.260;20.746;2023-01-15T18:09:39;6.67;89.21
69546;SHT31;56766;52.260;20.746;2023-01-15T18:12:06;6.68;89.25
69546;SHT31;56766;52.260;20.746;2023-01-15T18:14:33;6.65;89.16
69546;SHT31;56766;52.260;20.746;2023-01-15T18:17:01;6.58;89.07
69546;SHT31;56766;52.260;20.746;2023-01-15T18:19:28;6.49;89.08
69546;SHT31;56766;52.260;20.746;2023-01-15T18:21:55;6.43;89.11